Terminal Aerodrome Forecast
Issued by NWS

Home | Current Version | Previous Version | Graphics & Text | Print | Product List | Glossary On
Versions: 1 2 3 4 5 6 7 8 9 10 11 12 13 14 15 16 17
000
FTUS43 KBIS 241412 AAB
TAFDIK
TAF AMD
KDIK 241412Z 2414/2512 29020G25KT P6SM BKN020
     FM241600 30020G29KT P6SM BKN030
     FM250000 31016G22KT P6SM BKN040
     FM250400 32010KT P6SM SCT030=

USA.gov is the U.S. government's official web portal to all federal, state and local government web resources and services.